createdAt,value
2023-05-13T00:01:53.546Z,15.83
2023-05-13T00:04:19.994Z,15.85
2023-05-13T00:06:46.337Z,15.80
2023-05-13T00:09:12.774Z,15.77
2023-05-13T00:11:39.127Z,15.73
2023-05-13T00:14:06.410Z,15.72
2023-05-13T00:16:32.844Z,15.76
2023-05-13T00:18:59.264Z,15.72
2023-05-13T00:21:25.712Z,15.73
2023-05-13T00:23:52.130Z,15.71
2023-05-13T00:26:18.539Z,15.65
2023-05-13T00:28:44.929Z,15.62
2023-05-13T00:31:11.537Z,15.64
2023-05-13T00:33:38.152Z,15.64
2023-05-13T00:36:05.110Z,15.59
2023-05-13T00:38:31.490Z,15.59
2023-05-13T00:40:57.882Z,15.56
2023-05-13T00:43:24.283Z,15.52
2023-05-13T00:45:50.751Z,15.51
2023-05-13T00:48:17.477Z,15.51
2023-05-13T00:50:44.758Z,15.51
2023-05-13T00:53:12.827Z,15.51
2023-05-13T00:55:46.221Z,15.47
2023-05-13T00:58:13.531Z,15.44
2023-05-13T01:00:49.297Z,15.40
2023-05-13T01:03:37.176Z,15.41
2023-05-13T01:06:32.669Z,15.33
2023-05-13T01:09:11.902Z,15.24
2023-05-13T01:11:41.554Z,15.20
2023-05-13T01:14:19.463Z,15.07
2023-05-13T01:16:52.779Z,15.05
2023-05-13T01:19:24.811Z,15.02
2023-05-13T01:21:55.311Z,14.94
2023-05-13T01:24:22.152Z,14.94
2023-05-13T01:26:49.390Z,14.92
2023-05-13T01:29:16.403Z,14.91
2023-05-13T01:31:43.622Z,14.95
2023-05-13T01:34:12.529Z,14.93
2023-05-13T01:36:39.894Z,14.93
2023-05-13T01:39:07.437Z,14.90
2023-05-13T01:41:33.963Z,14.88
2023-05-13T01:44:00.460Z,14.83
2023-05-13T01:46:26.848Z,14.86
2023-05-13T01:48:53.191Z,14.83
2023-05-13T01:51:19.586Z,14.87
2023-05-13T01:53:45.935Z,14.81
2023-05-13T01:56:12.332Z,14.86
2023-05-13T01:58:38.732Z,14.84
2023-05-13T02:01:05.079Z,14.77
2023-05-13T02:03:31.500Z,14.70
2023-05-13T02:05:57.896Z,14.69
2023-05-13T02:08:25.337Z,14.59
2023-05-13T02:10:58.662Z,14.63
2023-05-13T02:13:26.155Z,14.60
2023-05-13T02:15:53.564Z,14.60
2023-05-13T02:18:20.190Z,14.51
2023-05-13T02:20:46.665Z,14.50
2023-05-13T02:23:13.183Z,14.56
2023-05-13T02:25:39.552Z,14.47
2023-05-13T02:28:06.169Z,14.50
2023-05-13T02:30:32.572Z,14.41
2023-05-13T02:32:59.735Z,14.40
2023-05-13T02:35:29.585Z,14.34
2023-05-13T02:37:57.119Z,14.21
2023-05-13T02:40:23.808Z,14.24
2023-05-13T02:42:50.678Z,14.33
2023-05-13T02:45:17.020Z,14.31
2023-05-13T02:47:44.019Z,14.27
2023-05-13T02:50:10.575Z,14.24
2023-05-13T02:52:38.824Z,14.11
2023-05-13T02:55:09.064Z,14.09
2023-05-13T02:57:36.426Z,13.99
2023-05-13T03:00:06.774Z,14.00
2023-05-13T03:02:33.978Z,13.90
2023-05-13T03:05:00.627Z,13.90
2023-05-13T03:07:27.093Z,13.83
2023-05-13T03:09:53.548Z,13.85
2023-05-13T03:12:19.979Z,13.87
2023-05-13T03:14:46.447Z,13.90
2023-05-13T03:17:12.809Z,13.93
2023-05-13T03:19:39.206Z,13.84
2023-05-13T03:22:06.210Z,13.80
2023-05-13T03:24:32.749Z,13.77
2023-05-13T03:26:59.288Z,13.76
2023-05-13T03:29:25.751Z,13.77
2023-05-13T03:31:52.514Z,13.68
2023-05-13T03:34:19.110Z,13.72
2023-05-13T03:36:45.581Z,13.74
2023-05-13T03:39:12.115Z,13.70
2023-05-13T03:41:38.524Z,13.71
2023-05-13T03:44:04.949Z,13.68
2023-05-13T03:46:31.954Z,13.63
2023-05-13T03:48:58.383Z,13.56
2023-05-13T03:51:24.922Z,13.59
2023-05-13T03:53:51.308Z,13.59
2023-05-13T03:56:17.727Z,13.49
2023-05-13T03:58:44.114Z,13.49
2023-05-13T04:01:10.447Z,13.50
2023-05-13T04:03:36.793Z,13.44
2023-05-13T04:06:03.270Z,13.51
2023-05-13T04:08:29.639Z,13.49
2023-05-13T04:10:57.432Z,13.50
2023-05-13T04:13:23.760Z,13.36
2023-05-13T04:15:50.285Z,13.39
2023-05-13T04:18:16.673Z,13.32
2023-05-13T04:20:42.999Z,13.31
2023-05-13T04:23:10.382Z,13.28
2023-05-13T04:25:39.338Z,13.26
2023-05-13T04:28:05.824Z,13.20
2023-05-13T04:30:32.228Z,13.25
2023-05-13T04:32:58.654Z,13.28
2023-05-13T04:35:25.137Z,13.22
2023-05-13T04:37:51.509Z,13.19
2023-05-13T04:40:18.093Z,13.18
2023-05-13T04:42:44.518Z,13.13
2023-05-13T04:45:11.424Z,13.18
2023-05-13T04:47:38.160Z,13.21
2023-05-13T04:50:05.274Z,13.23
2023-05-13T04:52:32.056Z,13.26
2023-05-13T04:54:58.450Z,13.19
2023-05-13T04:57:24.821Z,13.13
2023-05-13T04:59:51.195Z,13.18
2023-05-13T05:02:17.527Z,13.17
2023-05-13T05:04:44.899Z,13.15
2023-05-13T05:07:11.310Z,13.12
2023-05-13T05:09:37.665Z,13.10
2023-05-13T05:12:04.194Z,13.12
2023-05-13T05:14:30.645Z,13.10
2023-05-13T05:16:57.072Z,13.10
2023-05-13T05:19:24.247Z,13.12
2023-05-13T05:21:51.637Z,13.12
2023-05-13T05:24:18.532Z,13.11
2023-05-13T05:26:44.987Z,13.10
2023-05-13T05:29:11.465Z,13.09
2023-05-13T05:31:38.459Z,13.11
2023-05-13T05:34:04.983Z,13.12
2023-05-13T05:36:31.393Z,13.18
2023-05-13T05:38:57.772Z,13.16
2023-05-13T05:41:24.565Z,13.08
2023-05-13T05:43:50.932Z,13.10
2023-05-13T05:46:17.415Z,13.12
2023-05-13T05:48:43.834Z,13.13
2023-05-13T05:51:10.272Z,13.11
2023-05-13T05:53:37.728Z,13.12
2023-05-13T05:56:04.533Z,13.17
2023-05-13T05:58:30.974Z,13.17
2023-05-13T06:00:58.355Z,13.18
2023-05-13T06:03:24.908Z,13.22
2023-05-13T06:05:51.366Z,13.22
2023-05-13T06:08:17.755Z,13.26
2023-05-13T06:10:44.513Z,13.23
2023-05-13T06:13:10.882Z,13.25
2023-05-13T06:15:40.467Z,13.29
2023-05-13T06:18:06.881Z,13.34
2023-05-13T06:20:33.416Z,13.36
2023-05-13T06:22:59.875Z,13.43
2023-05-13T06:25:26.318Z,13.42
2023-05-13T06:27:52.703Z,13.43
2023-05-13T06:30:19.261Z,13.52
2023-05-13T06:33:00.196Z,13.51
2023-05-13T06:35:27.866Z,13.56
2023-05-13T06:37:54.270Z,13.57
2023-05-13T06:40:20.843Z,13.58
2023-05-13T06:42:47.354Z,13.64
2023-05-13T06:45:13.771Z,13.67
2023-05-13T06:47:40.249Z,13.71
2023-05-13T06:50:07.052Z,13.77
2023-05-13T06:52:33.378Z,13.76
2023-05-13T06:54:59.962Z,13.76
2023-05-13T06:57:38.752Z,13.82
2023-05-13T07:00:08.953Z,13.86
2023-05-13T07:02:35.425Z,13.92
2023-05-13T07:05:01.859Z,14.00
2023-05-13T07:07:28.177Z,14.03
2023-05-13T07:09:54.587Z,14.09
2023-05-13T07:12:21.000Z,14.11
2023-05-13T07:14:47.403Z,14.13
2023-05-13T07:17:13.837Z,14.21
2023-05-13T07:19:40.236Z,14.27
2023-05-13T07:22:06.729Z,14.32
2023-05-13T07:24:33.180Z,14.37
2023-05-13T07:26:59.536Z,14.39
2023-05-13T07:29:27.038Z,14.41
2023-05-13T07:31:53.972Z,14.44
2023-05-13T07:34:20.287Z,14.50
2023-05-13T07:36:46.681Z,14.54
2023-05-13T07:39:13.092Z,14.58
2023-05-13T07:41:39.539Z,14.60
2023-05-13T07:44:11.423Z,14.68
2023-05-13T07:46:37.871Z,14.75
2023-05-13T07:49:06.468Z,14.78
2023-05-13T07:51:32.900Z,14.86
2023-05-13T07:53:59.256Z,14.91
2023-05-13T07:56:25.908Z,14.98
2023-05-13T07:58:52.374Z,15.05
2023-05-13T08:01:18.887Z,15.09
2023-05-13T08:03:45.497Z,15.18
2023-05-13T08:06:12.005Z,15.23
2023-05-13T08:08:38.413Z,15.32
2023-05-13T08:11:04.896Z,15.40
2023-05-13T08:13:31.348Z,15.52
2023-05-13T08:16:01.940Z,15.60
2023-05-13T08:18:28.466Z,15.63
2023-05-13T08:20:54.870Z,15.69
2023-05-13T08:23:24.564Z,15.83
2023-05-13T08:25:58.387Z,15.91
2023-05-13T08:28:26.533Z,15.98
2023-05-13T08:30:52.950Z,16.10
2023-05-13T08:33:19.325Z,16.17
2023-05-13T08:35:46.607Z,16.16
2023-05-13T08:38:12.997Z,16.16
2023-05-13T08:40:39.707Z,16.20
2023-05-13T08:43:06.789Z,16.24
2023-05-13T08:45:33.453Z,16.31
2023-05-13T08:48:03.996Z,16.36
2023-05-13T08:50:30.898Z,16.44
2023-05-13T08:52:58.749Z,16.48
2023-05-13T08:55:26.563Z,16.53
2023-05-13T08:57:53.281Z,16.60
2023-05-13T09:00:21.407Z,16.69
2023-05-13T09:02:51.878Z,16.73
2023-05-13T09:05:18.886Z,16.81
2023-05-13T09:07:45.786Z,16.86
2023-05-13T09:10:12.259Z,16.94
2023-05-13T09:12:42.550Z,17.05
2023-05-13T09:15:10.460Z,17.07
2023-05-13T09:17:42.756Z,17.02
2023-05-13T09:20:11.305Z,17.04
2023-05-13T09:23:06.825Z,17.22
2023-05-13T09:25:33.672Z,17.27
2023-05-13T09:28:02.462Z,17.32
2023-05-13T09:30:36.695Z,17.36
2023-05-13T09:33:19.531Z,17.41
2023-05-13T09:35:52.664Z,17.53
2023-05-13T09:38:21.445Z,17.57
2023-05-13T09:40:55.392Z,17.61
2023-05-13T09:43:23.909Z,17.67
2023-05-13T09:45:54.994Z,17.68
2023-05-13T09:48:23.347Z,17.71
2023-05-13T09:50:51.308Z,17.79
2023-05-13T09:53:19.028Z,17.85
2023-05-13T09:55:50.218Z,17.91
2023-05-13T09:58:17.073Z,17.97
2023-05-13T10:00:44.334Z,18.01
2023-05-13T10:03:12.087Z,18.03
2023-05-13T10:05:39.841Z,18.10
2023-05-13T10:08:11.824Z,18.16
2023-05-13T10:10:39.152Z,18.22
2023-05-13T10:13:08.786Z,18.29
2023-05-13T10:15:35.428Z,18.33
2023-05-13T10:18:03.365Z,18.39
2023-05-13T10:20:31.776Z,18.42
2023-05-13T10:22:58.327Z,18.51
2023-05-13T10:25:25.534Z,18.52
2023-05-13T10:27:53.130Z,18.57
2023-05-13T10:30:19.872Z,18.58
2023-05-13T10:32:46.357Z,18.62
2023-05-13T10:35:15.734Z,18.70
2023-05-13T10:38:01.671Z,18.83
2023-05-13T10:41:05.636Z,18.80
2023-05-13T10:43:34.152Z,18.89
2023-05-13T10:46:02.747Z,18.91
2023-05-13T10:48:43.447Z,18.98
2023-05-13T10:51:14.519Z,19.01
2023-05-13T10:53:48.052Z,19.10
2023-05-13T10:56:15.728Z,19.18
2023-05-13T10:58:42.137Z,19.24
2023-05-13T11:01:29.558Z,19.32
2023-05-13T11:04:05.756Z,19.38
2023-05-13T11:06:37.249Z,19.43
2023-05-13T11:09:06.373Z,19.48
2023-05-13T11:11:36.586Z,19.54
2023-05-13T11:14:09.013Z,19.53
2023-05-13T11:16:35.964Z,19.58
2023-05-13T11:19:03.785Z,19.70
2023-05-13T11:21:33.236Z,19.76
2023-05-13T11:24:06.073Z,19.80
2023-05-13T11:26:56.462Z,19.83
2023-05-13T11:29:35.962Z,19.93
2023-05-13T11:32:04.924Z,19.93
2023-05-13T11:34:32.728Z,19.93
2023-05-13T11:37:05.215Z,20.05
2023-05-13T11:39:32.896Z,20.12
2023-05-13T11:42:03.439Z,20.19
2023-05-13T11:44:30.172Z,20.21
2023-05-13T11:47:08.225Z,20.20
2023-05-13T11:49:41.536Z,20.23
2023-05-13T11:52:13.320Z,20.29
2023-05-13T11:54:47.178Z,20.39
2023-05-13T11:57:22.130Z,20.38
2023-05-13T12:00:06.551Z,20.40
2023-05-13T12:02:44.362Z,20.40
2023-05-13T12:05:12.171Z,20.53
2023-05-13T12:07:39.532Z,20.58
2023-05-13T12:10:07.216Z,20.59
2023-05-13T12:12:35.850Z,20.57
2023-05-13T12:15:03.728Z,20.64
2023-05-13T12:17:31.418Z,20.72
2023-05-13T12:20:11.454Z,20.78
2023-05-13T12:23:00.256Z,20.70
2023-05-13T12:25:46.770Z,20.72
2023-05-13T12:28:20.651Z,20.77
2023-05-13T12:31:01.598Z,20.86
2023-05-13T12:33:33.353Z,20.90
2023-05-13T12:36:25.580Z,21.02
2023-05-13T12:39:00.970Z,21.01
2023-05-13T12:41:29.899Z,21.02
2023-05-13T12:44:03.236Z,21.02
2023-05-13T12:46:29.942Z,21.10
2023-05-13T12:49:00.808Z,21.14
2023-05-13T12:51:28.044Z,21.22
2023-05-13T12:53:54.655Z,21.26
2023-05-13T12:56:23.008Z,21.22
2023-05-13T12:58:51.083Z,21.26
2023-05-13T13:01:18.178Z,21.32
2023-05-13T13:03:44.824Z,21.36
2023-05-13T13:06:12.777Z,21.32
2023-05-13T13:08:39.669Z,21.38
2023-05-13T13:11:06.927Z,21.37
2023-05-13T13:13:34.587Z,21.38
2023-05-13T13:16:03.638Z,21.30
2023-05-13T13:18:30.135Z,21.32
2023-05-13T13:20:56.584Z,21.30
2023-05-13T13:23:23.078Z,21.29
2023-05-13T13:25:49.471Z,21.33
2023-05-13T13:28:15.952Z,21.29
2023-05-13T13:30:46.469Z,21.34
2023-05-13T13:33:15.242Z,21.35
2023-05-13T13:35:43.887Z,21.30
2023-05-13T13:38:10.465Z,21.29
2023-05-13T13:40:36.851Z,21.22
2023-05-13T13:43:04.169Z,21.22
2023-05-13T13:45:31.200Z,21.19
2023-05-13T13:47:58.295Z,21.22
2023-05-13T13:50:24.925Z,21.22
2023-05-13T13:52:52.484Z,21.23
2023-05-13T13:55:20.140Z,21.21
2023-05-13T13:57:46.775Z,21.21
2023-05-13T14:00:14.730Z,21.25
2023-05-13T14:02:42.029Z,21.24
2023-05-13T14:05:08.876Z,21.22
2023-05-13T14:07:36.916Z,21.21
2023-05-13T14:10:07.204Z,21.18
2023-05-13T14:12:35.699Z,21.21
2023-05-13T14:15:02.079Z,21.21
2023-05-13T14:17:28.749Z,21.17
2023-05-13T14:19:55.597Z,21.14
2023-05-13T14:22:23.451Z,21.18
2023-05-13T14:24:51.810Z,21.19
2023-05-13T14:27:18.909Z,21.19
2023-05-13T14:29:47.368Z,21.18
2023-05-13T14:32:13.978Z,21.17
2023-05-13T14:34:40.533Z,21.16
2023-05-13T14:37:07.387Z,21.16
2023-05-13T14:39:33.718Z,21.12
2023-05-13T14:42:00.506Z,21.13
2023-05-13T14:44:26.862Z,21.17
2023-05-13T14:46:53.463Z,21.18
2023-05-13T14:49:19.880Z,21.21
2023-05-13T14:51:46.269Z,21.21
2023-05-13T14:54:12.773Z,21.18
2023-05-13T14:56:39.250Z,21.19
2023-05-13T14:59:05.688Z,21.20
2023-05-13T15:01:32.318Z,21.21
2023-05-13T15:03:59.635Z,21.21
2023-05-13T15:06:26.732Z,21.25
2023-05-13T15:08:53.654Z,21.25
2023-05-13T15:11:20.052Z,21.29
2023-05-13T15:13:46.538Z,21.25
2023-05-13T15:16:13.014Z,21.24
2023-05-13T15:18:39.485Z,21.24
2023-05-13T15:21:05.912Z,21.22
2023-05-13T15:23:32.419Z,21.17
2023-05-13T15:25:58.798Z,21.15
2023-05-13T15:28:25.192Z,21.17
2023-05-13T15:30:51.685Z,21.18
2023-05-13T15:33:18.081Z,21.21
2023-05-13T15:35:44.552Z,21.27
2023-05-13T15:38:10.948Z,21.20
2023-05-13T15:40:38.278Z,21.25
2023-05-13T15:43:05.054Z,21.26
2023-05-13T15:45:31.460Z,21.25
2023-05-13T15:47:57.855Z,21.23
2023-05-13T15:50:25.887Z,21.23
2023-05-13T15:52:54.365Z,21.21
2023-05-13T15:55:20.745Z,21.19
2023-05-13T15:57:48.881Z,21.20
2023-05-13T16:00:17.768Z,21.23
2023-05-13T16:02:44.440Z,21.22
2023-05-13T16:05:11.938Z,21.21
2023-05-13T16:07:38.444Z,21.26
2023-05-13T16:10:05.466Z,21.23
2023-05-13T16:12:31.968Z,21.20
2023-05-13T16:14:58.345Z,21.14
2023-05-13T16:17:24.826Z,21.10
2023-05-13T16:19:51.445Z,21.11
2023-05-13T16:22:28.921Z,21.04
2023-05-13T16:24:58.594Z,21.01
2023-05-13T16:27:25.163Z,20.98
2023-05-13T16:29:52.009Z,20.91
2023-05-13T16:32:18.391Z,20.89
2023-05-13T16:34:44.795Z,20.86
2023-05-13T16:37:11.156Z,20.83
2023-05-13T16:39:37.693Z,20.83
2023-05-13T16:42:04.286Z,20.83
2023-05-13T16:44:30.658Z,20.83
2023-05-13T16:46:57.061Z,20.82
2023-05-13T16:49:23.437Z,20.84
2023-05-13T16:51:49.920Z,20.83
2023-05-13T16:54:16.324Z,20.82
2023-05-13T16:56:43.232Z,20.83
2023-05-13T16:59:09.629Z,20.79
2023-05-13T17:01:36.270Z,20.77
2023-05-13T17:04:02.679Z,20.79
2023-05-13T17:06:29.021Z,20.86
2023-05-13T17:08:55.627Z,20.87
2023-05-13T17:11:22.051Z,20.88
2023-05-13T17:13:48.432Z,20.89
2023-05-13T17:16:15.678Z,20.89
2023-05-13T17:18:42.184Z,20.89
2023-05-13T17:21:08.669Z,20.87
2023-05-13T17:23:35.500Z,20.89
2023-05-13T17:26:01.909Z,20.90
2023-05-13T17:28:28.277Z,20.88
2023-05-13T17:30:54.754Z,20.88
2023-05-13T17:33:21.841Z,20.93
2023-05-13T17:35:48.232Z,20.98
2023-05-13T17:38:14.714Z,21.03
2023-05-13T17:40:41.077Z,20.98
2023-05-13T17:43:07.475Z,20.95
2023-05-13T17:45:35.599Z,20.95
2023-05-13T17:48:02.207Z,20.96
2023-05-13T17:50:30.709Z,20.97
2023-05-13T17:52:57.055Z,20.99
2023-05-13T17:55:23.412Z,20.94
2023-05-13T17:57:49.743Z,20.89
2023-05-13T18:00:16.372Z,20.82
2023-05-13T18:02:42.869Z,20.82
2023-05-13T18:05:09.989Z,20.78
2023-05-13T18:07:36.333Z,20.86
2023-05-13T18:10:02.907Z,20.84
2023-05-13T18:12:29.365Z,20.82
2023-05-13T18:14:55.878Z,20.76
2023-05-13T18:17:22.370Z,20.66
2023-05-13T18:19:48.798Z,20.54
2023-05-13T18:22:15.132Z,20.45
2023-05-13T18:24:41.499Z,20.39
2023-05-13T18:27:08.166Z,20.24
2023-05-13T18:29:35.068Z,20.14
2023-05-13T18:32:01.968Z,20.10
2023-05-13T18:34:28.665Z,20.04
2023-05-13T18:36:55.088Z,19.95
2023-05-13T18:39:21.841Z,19.91
2023-05-13T18:41:48.591Z,19.90
2023-05-13T18:44:15.583Z,19.83
2023-05-13T18:46:44.315Z,19.79
2023-05-13T18:49:11.327Z,19.72
2023-05-13T18:51:37.765Z,19.65
2023-05-13T18:54:04.838Z,19.65
2023-05-13T18:56:31.991Z,19.60
2023-05-13T18:58:58.555Z,19.57
2023-05-13T19:01:25.482Z,19.51
2023-05-13T19:03:52.524Z,19.45
2023-05-13T19:06:19.004Z,19.45
2023-05-13T19:08:45.424Z,19.39
2023-05-13T19:11:11.870Z,19.35
2023-05-13T19:13:46.730Z,19.34
2023-05-13T19:16:13.850Z,19.35
2023-05-13T19:18:40.217Z,19.29
2023-05-13T19:21:06.843Z,19.28
2023-05-13T19:23:33.342Z,19.21
2023-05-13T19:26:00.040Z,19.20
2023-05-13T19:28:28.015Z,19.17
2023-05-13T19:30:54.452Z,19.12
2023-05-13T19:33:20.848Z,19.04
2023-05-13T19:35:47.408Z,19.05
2023-05-13T19:38:13.814Z,19.00
2023-05-13T19:40:40.259Z,18.95
2023-05-13T19:43:06.671Z,18.93
2023-05-13T19:45:33.141Z,18.89
2023-05-13T19:47:59.514Z,18.85
2023-05-13T19:50:26.011Z,18.81
2023-05-13T19:52:52.540Z,18.77
2023-05-13T19:55:19.377Z,18.74
2023-05-13T19:57:47.400Z,18.75
2023-05-13T20:00:14.167Z,18.65
2023-05-13T20:02:40.827Z,18.64
2023-05-13T20:05:08.286Z,18.61
2023-05-13T20:07:34.859Z,18.53
2023-05-13T20:10:01.279Z,18.49
2023-05-13T20:12:27.686Z,18.44
2023-05-13T20:14:58.122Z,18.39
2023-05-13T20:17:25.569Z,18.34
2023-05-13T20:19:54.497Z,18.27
2023-05-13T20:22:21.070Z,18.30
2023-05-13T20:24:49.274Z,18.32
2023-05-13T20:27:17.008Z,18.32
2023-05-13T20:29:45.358Z,18.30
2023-05-13T20:32:11.871Z,18.26
2023-05-13T20:34:38.365Z,18.27
2023-05-13T20:37:05.673Z,18.29
2023-05-13T20:39:32.255Z,18.26
2023-05-13T20:41:58.675Z,18.22
2023-05-13T20:44:25.170Z,18.11
2023-05-13T20:46:51.562Z,17.91
2023-05-13T20:49:18.436Z,17.91
2023-05-13T20:51:47.266Z,17.88
2023-05-13T20:54:14.812Z,17.88
2023-05-13T20:56:41.498Z,17.78
2023-05-13T20:59:08.161Z,17.83
2023-05-13T21:01:35.386Z,17.79
2023-05-13T21:04:05.773Z,17.80
2023-05-13T21:06:32.920Z,17.82
2023-05-13T21:08:59.406Z,17.75
2023-05-13T21:11:25.814Z,17.75
2023-05-13T21:13:52.172Z,17.70
2023-05-13T21:16:18.622Z,17.67
2023-05-13T21:18:45.032Z,17.69
2023-05-13T21:21:14.254Z,17.67
2023-05-13T21:23:42.954Z,17.62
2023-05-13T21:26:10.117Z,17.48
2023-05-13T21:28:36.825Z,17.48
2023-05-13T21:31:03.390Z,17.48
2023-05-13T21:33:30.371Z,17.45
2023-05-13T21:35:56.781Z,17.46
2023-05-13T21:38:23.579Z,17.40
2023-05-13T21:40:50.118Z,17.37
2023-05-13T21:43:16.454Z,17.38
2023-05-13T21:45:42.842Z,17.36
2023-05-13T21:48:09.363Z,17.33
2023-05-13T21:50:35.800Z,17.11
2023-05-13T21:53:02.277Z,17.02
2023-05-13T21:55:28.745Z,17.02
2023-05-13T21:57:55.112Z,16.95
2023-05-13T22:00:21.800Z,16.93
2023-05-13T22:02:50.615Z,16.91
2023-05-13T22:05:17.221Z,16.82
2023-05-13T22:07:43.580Z,16.79
2023-05-13T22:10:10.421Z,16.79
2023-05-13T22:12:36.915Z,16.65
2023-05-13T22:15:03.656Z,16.62
2023-05-13T22:17:30.089Z,16.62
2023-05-13T22:19:56.779Z,16.57
2023-05-13T22:22:23.149Z,16.58
2023-05-13T22:24:49.493Z,16.59
2023-05-13T22:27:16.808Z,16.55
2023-05-13T22:29:43.181Z,16.53
2023-05-13T22:32:09.997Z,16.52
2023-05-13T22:34:36.567Z,16.50
2023-05-13T22:37:03.031Z,16.52
2023-05-13T22:39:29.493Z,16.45
2023-05-13T22:41:55.939Z,16.40
2023-05-13T22:44:25.188Z,16.42
2023-05-13T22:46:52.877Z,16.39
2023-05-13T22:49:19.606Z,16.26
2023-05-13T22:51:47.730Z,16.20
2023-05-13T22:54:14.165Z,16.16
2023-05-13T22:56:40.617Z,16.18
2023-05-13T22:59:07.020Z,16.20
2023-05-13T23:01:33.629Z,16.09
2023-05-13T23:04:00.139Z,16.04
2023-05-13T23:06:26.641Z,16.08
2023-05-13T23:08:53.041Z,16.11
2023-05-13T23:11:19.416Z,16.03
2023-05-13T23:13:45.798Z,16.00
2023-05-13T23:16:12.183Z,16.01
2023-05-13T23:18:38.700Z,16.01
2023-05-13T23:21:05.581Z,15.94
2023-05-13T23:23:32.003Z,15.93
2023-05-13T23:25:58.362Z,15.92
2023-05-13T23:28:24.689Z,15.95
2023-05-13T23:30:54.380Z,15.97
2023-05-13T23:33:20.920Z,15.92
2023-05-13T23:35:54.738Z,15.83
2023-05-13T23:38:21.402Z,15.71
2023-05-13T23:40:48.216Z,15.64
2023-05-13T23:43:14.844Z,15.71
2023-05-13T23:45:41.473Z,15.61
2023-05-13T23:48:07.967Z,15.63
2023-05-13T23:50:34.573Z,15.58
2023-05-13T23:53:01.140Z,15.48
2023-05-13T23:55:27.792Z,15.41
2023-05-13T23:57:55.115Z,15.40
